Time;durP1;ratioP1;P1;durP2;ratioP2;P2;SDS_P1;SDS_P2;PMS_P1;PMS_P2;Temp;Humidity;BMP_temperature;BMP_pressure;BME280_temperature;BME280_humidity;BME280_pressure;Samples;Min_cycle;Max_cycle;Signal;HPM_P1;HPM_P2
2022/04/11 00:02:17;;;;;;;5.93;2.93;;;2.60;97.30;;;;;;5014441;28;20185;-79
2022/04/11 00:04:43;;;;;;;5.30;3.17;;;2.50;97.30;;;;;;5013481;28;20706;-78
2022/04/11 00:07:08;;;;;;;5.27;3.07;;;2.50;97.30;;;;;;5013783;28;20467;-79
2022/04/11 00:09:34;;;;;;;4.87;2.70;;;2.40;97.30;;;;;;5011488;28;20439;-84
2022/04/11 00:12:00;;;;;;;9.33;4.17;;;2.40;97.30;;;;;;5010430;28;20173;-84
2022/04/11 00:14:25;;;;;;;8.30;3.87;;;2.30;97.30;;;;;;5010491;28;20614;-85
2022/04/11 00:16:51;;;;;;;7.20;3.23;;;2.20;97.30;;;;;;5009840;28;20185;-77
2022/04/11 00:19:17;;;;;;;7.33;2.90;;;2.20;97.30;;;;;;5009205;28;20766;-80
2022/04/11 00:21:42;;;;;;;6.87;2.90;;;2.10;97.30;;;;;;5008100;28;20548;-79
2022/04/11 00:24:08;;;;;;;5.00;2.90;;;2.00;97.30;;;;;;4991315;28;20598;-84
2022/04/11 00:26:34;;;;;;;6.40;3.10;;;1.90;97.30;;;;;;4994049;28;20218;-83
2022/04/11 00:29:00;;;;;;;4.90;3.13;;;1.80;97.30;;;;;;4994079;28;20421;-82
2022/04/11 00:31:26;;;;;;;5.87;3.07;;;1.80;97.30;;;;;;4994677;28;20178;-78
2022/04/11 00:33:51;;;;;;;4.90;3.00;;;1.70;97.30;;;;;;4992324;28;20264;-78
2022/04/11 00:36:17;;;;;;;5.07;2.87;;;1.70;97.30;;;;;;4990661;28;20464;-84
2022/04/11 00:38:43;;;;;;;3.90;3.10;;;1.70;97.30;;;;;;4992191;28;20185;-84
2022/04/11 00:41:08;;;;;;;4.73;2.90;;;1.60;97.30;;;;;;5009049;28;20192;-78
2022/04/11 00:43:39;;;;;;;6.37;3.03;;;1.60;97.30;;;;;;5009031;28;20205;-76
2022/04/11 00:46:07;;;;;;;3.43;3.10;;;1.50;97.30;;;;;;5010464;28;20204;-76
2022/04/11 00:48:34;;;;;;;7.47;3.30;;;1.50;97.30;;;;;;5009058;28;20472;-79
2022/04/11 00:51:05;;;;;;;12.10;2.60;;;1.50;97.30;;;;;;5009152;28;20427;-80
2022/04/11 00:53:32;;;;;;;5.57;3.20;;;1.50;97.30;;;;;;5010508;28;20428;-80
2022/04/11 00:55:59;;;;;;;3.40;2.87;;;1.50;97.30;;;;;;5009379;28;20475;-80
2022/04/11 00:58:25;;;;;;;11.23;3.40;;;1.50;97.30;;;;;;5012349;28;20412;-79
2022/04/11 01:01:22;;;;;;;4.23;2.80;;;1.40;97.30;;;;;;5014690;28;20416;-79
2022/04/11 01:03:51;;;;;;;6.93;3.00;;;1.40;97.30;;;;;;5014310;28;20451;-79
2022/04/11 01:06:20;;;;;;;4.10;2.77;;;1.40;97.30;;;;;;5015631;28;20790;-79
2022/04/11 01:08:49;;;;;;;8.00;3.37;;;1.40;97.30;;;;;;5013583;28;20434;-79
2022/04/11 01:11:19;;;;;;;6.83;3.07;;;1.40;97.30;;;;;;5014586;28;20412;-80
2022/04/11 01:13:46;;;;;;;6.77;2.77;;;1.40;97.30;;;;;;5014921;28;20960;-84
2022/04/11 01:16:11;;;;;;;5.50;3.10;;;1.40;97.30;;;;;;5013856;28;21005;-84
2022/04/11 01:18:38;;;;;;;6.13;3.27;;;1.40;97.30;;;;;;5014200;28;20460;-84
2022/04/11 01:21:09;;;;;;;11.53;3.20;;;1.40;97.30;;;;;;5013721;28;20177;-84
2022/04/11 01:23:36;;;;;;;4.73;2.90;;;1.40;97.30;;;;;;5012389;28;20474;-78
2022/04/11 01:26:02;;;;;;;6.53;2.60;;;1.40;97.30;;;;;;5012333;28;20487;-77
2022/04/11 01:28:28;;;;;;;6.87;2.60;;;1.40;97.30;;;;;;5014610;28;21032;-79
2022/04/11 01:30:55;;;;;;;3.37;2.87;;;1.40;97.30;;;;;;5014661;28;20173;-78
2022/04/11 01:33:25;;;;;;;5.63;3.10;;;1.40;97.30;;;;;;5013418;28;20506;-77
2022/04/11 01:35:51;;;;;;;5.33;2.53;;;1.40;97.30;;;;;;5012068;28;20408;-78
2022/04/11 01:38:17;;;;;;;9.93;2.80;;;1.40;97.30;;;;;;5012279;28;20804;-78
2022/04/11 01:40:53;;;;;;;6.70;3.10;;;1.40;97.30;;;;;;5013367;28;20314;-78
2022/04/11 01:43:20;;;;;;;5.07;2.70;;;1.40;97.30;;;;;;5012170;28;20426;-78
2022/04/11 01:45:46;;;;;;;5.07;2.70;;;1.30;97.30;;;;;;5012179;28;20428;-78
2022/04/11 01:48:12;;;;;;;5.80;3.10;;;1.30;97.30;;;;;;5013379;28;20458;-79
2022/04/11 01:50:38;;;;;;;5.63;2.90;;;1.30;97.30;;;;;;5011947;28;20427;-79
2022/04/11 01:53:11;;;;;;;6.37;2.97;;;1.40;97.30;;;;;;5011896;28;20182;-76
2022/04/11 01:55:37;;;;;;;3.70;2.47;;;1.30;97.30;;;;;;5012369;28;20228;-76
2022/04/11 01:58:07;;;;;;;5.53;3.07;;;1.40;97.30;;;;;;5012086;28;20459;-76
2022/04/11 02:08:10;;;;;;;5.13;3.73;;;1.30;97.30;;;;;;5012892;28;21023;-77
2022/04/11 02:10:37;;;;;;;7.07;3.03;;;1.30;97.30;;;;;;5015345;28;20412;-82
2022/04/11 02:13:04;;;;;;;4.43;3.00;;;1.30;97.30;;;;;;5016583;28;20511;-84
2022/04/11 02:15:30;;;;;;;3.43;2.50;;;1.30;97.30;;;;;;5016820;28;20466;-81
2022/04/11 02:17:56;;;;;;;5.13;2.77;;;1.30;97.30;;;;;;5014038;28;20415;-83
2022/04/11 02:20:22;;;;;;;5.30;3.17;;;1.30;97.30;;;;;;5013313;28;20929;-78
2022/04/11 02:22:52;;;;;;;6.27;2.77;;;1.40;97.30;;;;;;5003562;28;20477;-79
2022/04/11 02:25:24;;;;;;;7.03;3.63;;;1.30;97.30;;;;;;5029459;28;20213;-84
2022/04/11 02:27:50;;;;;;;7.77;2.97;;;1.30;97.30;;;;;;4999035;28;20463;-79
2022/04/11 02:30:21;;;;;;;6.33;2.93;;;1.30;97.30;;;;;;5003565;28;20484;-80
2022/04/11 02:32:47;;;;;;;4.90;2.67;;;1.30;97.30;;;;;;5011793;28;20432;-76
2022/04/11 02:35:13;;;;;;;6.80;3.10;;;1.30;97.30;;;;;;5010987;28;20853;-76
2022/04/11 02:37:38;;;;;;;5.53;3.10;;;1.30;97.30;;;;;;5012612;28;20447;-76
2022/04/11 02:40:05;;;;;;;4.47;2.70;;;1.40;97.30;;;;;;5014802;28;20177;-79
2022/04/11 02:42:31;;;;;;;13.53;3.30;;;1.40;97.30;;;;;;5014979;28;20184;-79
2022/04/11 02:44:57;;;;;;;9.97;3.43;;;1.40;97.30;;;;;;5014395;28;20470;-79
2022/04/11 02:47:22;;;;;;;6.77;3.00;;;1.40;97.30;;;;;;5014748;28;20506;-80
2022/04/11 02:49:48;;;;;;;4.70;2.80;;;1.40;97.30;;;;;;5014967;28;20509;-79
2022/04/11 02:52:15;;;;;;;5.23;2.73;;;1.40;97.30;;;;;;5014811;28;20188;-80
2022/04/11 02:54:41;;;;;;;10.00;2.90;;;1.40;97.30;;;;;;5014815;28;20208;-84
2022/04/11 02:57:07;;;;;;;7.40;2.73;;;1.40;97.30;;;;;;5014632;28;20431;-77
2022/04/11 02:59:33;;;;;;;12.17;2.67;;;1.50;97.30;;;;;;5013855;28;20469;-77
2022/04/11 03:02:00;;;;;;;6.00;3.43;;;1.40;97.30;;;;;;5014067;28;20462;-78
2022/04/11 03:04:29;;;;;;;12.27;3.10;;;1.40;97.30;;;;;;5014072;28;20462;-78
2022/04/11 03:06:55;;;;;;;5.77;3.13;;;1.40;97.30;;;;;;5014538;28;20462;-78
2022/04/11 03:09:21;;;;;;;6.83;2.60;;;1.40;97.30;;;;;;5014801;28;20418;-79
2022/04/11 03:11:47;;;;;;;5.37;2.60;;;1.40;97.30;;;;;;5013942;28;20426;-76
2022/04/11 03:14:12;;;;;;;11.03;2.97;;;1.30;97.30;;;;;;5013841;28;20924;-76
2022/04/11 03:16:40;;;;;;;6.23;2.90;;;1.30;97.30;;;;;;5013581;28;20193;-76
2022/04/11 03:19:06;;;;;;;3.43;2.47;;;1.30;97.30;;;;;;5013745;28;20206;-76
2022/04/11 03:21:32;;;;;;;8.17;3.43;;;1.20;97.30;;;;;;5013641;28;20422;-77
2022/04/11 03:23:57;;;;;;;5.27;2.83;;;1.20;97.30;;;;;;4994944;28;20232;-77
2022/04/11 03:30:00;;;;;;;6.33;3.20;;;1.20;97.30;;;;;;5012883;28;20308;-78
2022/04/11 03:32:29;;;;;;;4.13;2.80;;;1.10;97.30;;;;;;4995107;28;20416;-78
2022/04/11 03:34:58;;;;;;;5.23;3.37;;;1.20;97.30;;;;;;4994921;28;20512;-78
2022/04/11 03:37:24;;;;;;;3.17;2.33;;;1.20;97.30;;;;;;4994864;28;20509;-78
2022/04/11 03:39:50;;;;;;;3.30;2.73;;;1.20;97.30;;;;;;4994529;28;20427;-78
2022/04/11 03:42:20;;;;;;;8.90;3.10;;;1.10;97.30;;;;;;4995066;28;20420;-77
2022/04/11 03:44:49;;;;;;;5.47;2.70;;;1.10;97.30;;;;;;4994733;28;20197;-78
2022/04/11 03:47:14;;;;;;;7.93;3.23;;;1.10;97.30;;;;;;4994944;28;20467;-78
2022/04/11 03:49:40;;;;;;;5.97;3.00;;;1.10;97.30;;;;;;4993213;28;20424;-78
2022/04/11 03:52:06;;;;;;;9.90;3.20;;;1.00;97.30;;;;;;5026468;28;20196;-77
2022/04/11 03:54:31;;;;;;;6.33;3.60;;;1.00;97.30;;;;;;4993757;28;20197;-77
2022/04/11 03:56:57;;;;;;;8.83;3.10;;;1.00;97.30;;;;;;5026570;28;20424;-78
2022/04/11 03:59:22;;;;;;;4.53;2.97;;;0.90;97.30;;;;;;5026088;28;20598;-79
2022/04/11 04:01:48;;;;;;;4.30;3.00;;;0.90;97.30;;;;;;4993946;28;20177;-84
2022/04/11 04:04:13;;;;;;;6.17;3.13;;;0.80;97.30;;;;;;5026822;28;20204;-77
2022/04/11 04:06:39;;;;;;;6.13;3.30;;;0.80;97.30;;;;;;4992949;28;20196;-76
2022/04/11 04:09:04;;;;;;;6.40;3.00;;;0.70;97.30;;;;;;5025777;28;20173;-78
2022/04/11 04:11:30;;;;;;;6.57;3.20;;;0.60;97.30;;;;;;4993055;28;20200;-77
2022/04/11 04:13:55;;;;;;;5.77;3.23;;;0.60;97.30;;;;;;4992974;28;20463;-77
2022/04/11 04:16:21;;;;;;;5.33;2.87;;;0.60;97.30;;;;;;4993189;28;20220;-84
2022/04/11 04:18:47;;;;;;;4.83;2.90;;;0.60;97.30;;;;;;4993976;28;20275;-84
2022/04/11 04:21:12;;;;;;;6.27;2.90;;;0.60;97.30;;;;;;4993927;28;20226;-84
2022/04/11 04:23:38;;;;;;;6.53;3.13;;;0.60;97.30;;;;;;4976097;28;20229;-84
2022/04/11 04:26:03;;;;;;;7.70;3.30;;;0.60;97.30;;;;;;4987489;28;20281;-84
2022/04/11 04:28:29;;;;;;;8.57;3.40;;;0.60;97.30;;;;;;4991654;28;20639;-84
2022/04/11 04:30:54;;;;;;;5.30;2.80;;;0.60;97.30;;;;;;4989593;28;20181;-84
2022/04/11 04:33:20;;;;;;;6.33;3.00;;;0.60;97.30;;;;;;4996045;28;20196;-83
2022/04/11 04:35:46;;;;;;;6.77;3.10;;;0.50;97.30;;;;;;5008835;28;20181;-85
2022/04/11 04:38:11;;;;;;;5.93;3.60;;;0.50;97.30;;;;;;4994145;28;20255;-85
2022/04/11 04:40:37;;;;;;;6.83;3.47;;;0.40;97.30;;;;;;4993092;28;20183;-85
2022/04/11 04:43:04;;;;;;;9.33;3.90;;;0.40;97.30;;;;;;4994933;28;20179;-82
2022/04/11 04:45:30;;;;;;;10.40;4.83;;;0.40;97.30;;;;;;4996741;28;20540;-83
2022/04/11 04:47:55;;;;;;;8.10;4.00;;;0.40;97.30;;;;;;4996047;28;20491;-83
2022/04/11 04:50:21;;;;;;;6.03;3.43;;;0.50;97.30;;;;;;4997135;28;20177;-83
2022/04/11 04:52:46;;;;;;;6.77;3.77;;;0.50;97.30;;;;;;4996883;28;20284;-82
2022/04/11 04:55:12;;;;;;;12.60;5.03;;;0.60;97.30;;;;;;4996594;28;20746;-83
2022/04/11 04:57:37;;;;;;;6.40;3.50;;;0.60;97.30;;;;;;4995560;28;20693;-83
2022/04/11 05:00:04;;;;;;;5.77;3.50;;;0.70;97.30;;;;;;5009596;28;20183;-76
2022/04/11 05:02:38;;;;;;;7.97;4.30;;;0.70;97.30;;;;;;4991855;28;20650;-77
2022/04/11 05:05:08;;;;;;;10.43;3.97;;;0.70;97.30;;;;;;4991688;28;20435;-76
2022/04/11 05:07:34;;;;;;;11.40;4.60;;;0.80;97.30;;;;;;5008854;28;20448;-76
2022/04/11 05:10:02;;;;;;;5.67;4.00;;;0.80;97.30;;;;;;4991853;28;20416;-77
2022/04/11 05:12:27;;;;;;;7.53;3.53;;;0.80;97.30;;;;;;4992157;28;21060;-76
2022/04/11 05:14:53;;;;;;;7.37;4.10;;;0.90;97.30;;;;;;5010161;28;20549;-76
2022/04/11 05:17:18;;;;;;;5.70;3.33;;;0.90;97.30;;;;;;4992240;28;20188;-77
2022/04/11 05:19:44;;;;;;;7.90;3.70;;;0.90;97.30;;;;;;4992258;28;20297;-76
2022/04/11 05:22:09;;;;;;;7.20;3.47;;;1.00;97.30;;;;;;4992360;28;20584;-76
2022/04/11 05:24:35;;;;;;;8.00;4.60;;;1.00;97.30;;;;;;5009925;28;20386;-76
2022/04/11 05:27:00;;;;;;;12.47;4.90;;;1.10;97.30;;;;;;4992405;28;20255;-77
2022/04/11 05:29:26;;;;;;;9.67;4.77;;;1.10;97.30;;;;;;4992543;28;20185;-76
2022/04/11 05:31:51;;;;;;;7.03;3.93;;;1.20;97.30;;;;;;4992502;28;20179;-76
2022/04/11 05:34:17;;;;;;;6.67;3.77;;;1.30;97.30;;;;;;4992470;28;20251;-76
2022/04/11 05:36:42;;;;;;;8.83;3.83;;;1.40;97.30;;;;;;4992370;28;20197;-76
2022/04/11 05:39:08;;;;;;;7.50;3.87;;;1.50;97.30;;;;;;4992070;28;20177;-77
2022/04/11 05:41:34;;;;;;;8.10;4.17;;;1.60;97.30;;;;;;4992411;28;20263;-76
2022/04/11 05:43:59;;;;;;;9.40;3.60;;;1.70;97.30;;;;;;4992407;28;20201;-76
2022/04/11 05:46:25;;;;;;;8.50;4.90;;;1.90;97.30;;;;;;5013396;28;20446;-76
2022/04/11 05:48:50;;;;;;;5.33;3.20;;;2.00;97.30;;;;;;4996044;28;20205;-76
2022/04/11 05:51:16;;;;;;;9.23;4.13;;;2.10;97.30;;;;;;4995660;28;20184;-76
2022/04/11 05:53:42;;;;;;;5.80;3.47;;;2.20;97.30;;;;;;4995569;28;20201;-77
2022/04/11 05:56:08;;;;;;;6.23;3.63;;;2.30;97.30;;;;;;4995558;28;20177;-76
2022/04/11 05:58:33;;;;;;;6.53;4.30;;;2.40;97.30;;;;;;4995752;28;20223;-76
2022/04/11 06:00:59;;;;;;;9.47;4.07;;;2.60;97.30;;;;;;5014099;28;20448;-82
2022/04/11 06:03:26;;;;;;;6.50;3.70;;;2.70;97.30;;;;;;4999216;28;20597;-82
2022/04/11 06:05:51;;;;;;;9.10;4.97;;;2.80;97.30;;;;;;4998740;28;20185;-83
2022/04/11 06:08:17;;;;;;;6.93;4.77;;;2.90;97.30;;;;;;4999412;28;20609;-82
2022/04/11 06:10:44;;;;;;;10.27;4.63;;;3.10;97.30;;;;;;4998152;28;20644;-83
2022/04/11 06:13:09;;;;;;;7.23;4.30;;;3.20;97.30;;;;;;4999140;28;20439;-82
2022/04/11 06:15:35;;;;;;;4.40;3.30;;;3.30;97.30;;;;;;4998647;28;20420;-82
2022/04/11 06:18:01;;;;;;;9.93;3.80;;;3.50;97.30;;;;;;4999118;28;20233;-84
2022/04/11 06:20:27;;;;;;;5.57;3.67;;;3.60;97.30;;;;;;4998012;28;20235;-83
2022/04/11 06:22:53;;;;;;;7.50;3.87;;;3.70;97.30;;;;;;4996968;28;20217;-82
2022/04/11 06:25:19;;;;;;;7.30;3.97;;;3.80;97.30;;;;;;4997532;28;20440;-84
2022/04/11 06:27:46;;;;;;;13.03;3.50;;;4.00;97.30;;;;;;4997694;28;20833;-82
2022/04/11 06:30:12;;;;;;;5.57;3.47;;;4.10;97.30;;;;;;5011573;28;20552;-82
2022/04/11 06:32:37;;;;;;;5.87;3.57;;;4.30;97.30;;;;;;5019105;28;20509;-84
2022/04/11 06:35:03;;;;;;;12.43;3.80;;;4.40;97.30;;;;;;5018246;28;20438;-81
2022/04/11 06:37:29;;;;;;;5.17;3.20;;;4.50;97.30;;;;;;5018512;28;20192;-82
2022/04/11 06:39:55;;;;;;;5.73;3.43;;;4.70;97.30;;;;;;5020660;28;20453;-83
2022/04/11 06:42:21;;;;;;;6.13;2.90;;;4.80;97.30;;;;;;5035695;28;20173;-82
2022/04/11 06:44:47;;;;;;;5.80;3.80;;;5.00;97.30;;;;;;5006347;28;20209;-82
2022/04/11 06:47:12;;;;;;;12.47;4.03;;;5.10;97.30;;;;;;5014064;28;20469;-83
2022/04/11 06:49:38;;;;;;;6.90;3.57;;;5.30;97.30;;;;;;5020243;28;20422;-80
2022/04/11 06:52:05;;;;;;;8.37;3.00;;;5.50;97.30;;;;;;5017631;28;20181;-82
2022/04/11 06:54:31;;;;;;;8.33;3.60;;;5.60;97.30;;;;;;5017132;28;20682;-82
2022/04/11 06:56:57;;;;;;;6.60;3.00;;;5.80;97.30;;;;;;5026807;28;20428;-82
2022/04/11 06:59:23;;;;;;;6.10;3.20;;;5.90;97.30;;;;;;4994768;28;20424;-82
2022/04/11 07:01:51;;;;;;;9.50;3.57;;;6.10;97.30;;;;;;4979813;28;20479;-81
2022/04/11 07:04:17;;;;;;;4.30;2.97;;;6.30;96.90;;;;;;5003096;28;20216;-81
2022/04/11 07:06:43;;;;;;;9.63;3.00;;;6.30;95.20;;;;;;5029307;28;20420;-82
2022/04/11 07:09:08;;;;;;;6.87;2.60;;;6.40;95.60;;;;;;4998012;28;20448;-81
2022/04/11 07:11:34;;;;;;;8.83;2.93;;;6.60;95.50;;;;;;4998206;28;20207;-81
2022/04/11 07:13:59;;;;;;;2.37;2.07;;;6.70;95.20;;;;;;4997889;28;20254;-82
2022/04/11 07:16:25;;;;;;;4.53;2.90;;;6.90;94.20;;;;;;4998166;28;20204;-81
2022/04/11 07:18:51;;;;;;;3.83;2.47;;;7.00;93.90;;;;;;4998065;28;20185;-81
2022/04/11 07:21:20;;;;;;;7.37;2.40;;;7.10;92.40;;;;;;4998302;28;20231;-82
2022/04/11 07:23:45;;;;;;;11.23;4.50;;;7.20;92.40;;;;;;4997615;28;20555;-82
2022/04/11 07:26:11;;;;;;;3.33;2.07;;;7.30;92.00;;;;;;4998383;28;20855;-81
2022/04/11 07:28:37;;;;;;;6.93;2.80;;;7.40;91.40;;;;;;4997713;28;20519;-81
2022/04/11 07:31:02;;;;;;;4.70;2.40;;;7.50;91.10;;;;;;4994673;28;20181;-75
2022/04/11 07:33:28;;;;;;;3.73;2.17;;;7.60;91.10;;;;;;4994007;28;20267;-75
2022/04/11 07:35:54;;;;;;;7.43;2.00;;;7.80;91.00;;;;;;5009975;28;20183;-75
2022/04/11 07:38:19;;;;;;;8.40;2.47;;;8.00;90.40;;;;;;4993321;28;20471;-75
2022/04/11 07:40:46;;;;;;;6.60;3.00;;;8.10;89.60;;;;;;5011137;28;20651;-75
2022/04/11 07:43:11;;;;;;;7.70;2.27;;;8.20;89.00;;;;;;5011419;28;20200;-77
2022/04/11 07:45:37;;;;;;;3.97;1.90;;;8.30;87.70;;;;;;5010045;28;20419;-77
2022/04/11 07:48:03;;;;;;;3.47;1.60;;;8.30;87.20;;;;;;4996508;28;20213;-77
2022/04/11 07:50:28;;;;;;;1.93;1.60;;;8.30;87.00;;;;;;5023136;28;20189;-77
2022/04/11 07:52:54;;;;;;;3.77;2.20;;;8.40;86.50;;;;;;5012456;28;20172;-75
2022/04/11 07:55:20;;;;;;;4.93;2.10;;;8.50;86.40;;;;;;5013237;28;20420;-76
2022/04/11 07:57:46;;;;;;;3.57;2.00;;;8.50;86.10;;;;;;5013090;28;20445;-75
2022/04/11 08:00:12;;;;;;;3.90;2.30;;;8.70;86.80;;;;;;5013370;28;20215;-75
2022/04/11 08:02:38;;;;;;;4.00;2.20;;;8.90;86.90;;;;;;5014882;28;20204;-76
2022/04/11 08:05:05;;;;;;;5.23;1.80;;;9.00;86.00;;;;;;4996350;28;20440;-77
2022/04/11 08:07:34;;;;;;;1.73;1.50;;;9.10;85.70;;;;;;4993684;28;20201;-76
2022/04/11 08:10:01;;;;;;;4.60;2.07;;;9.20;84.90;;;;;;5001133;28;20419;-78
2022/04/11 08:12:27;;;;;;;4.10;2.10;;;9.30;84.00;;;;;;5013254;28;20439;-75
2022/04/11 08:14:52;;;;;;;3.83;1.80;;;9.40;84.50;;;;;;5013591;28;20960;-77
2022/04/11 08:17:18;;;;;;;3.40;1.80;;;9.40;84.60;;;;;;5012899;28;20180;-76
2022/04/11 08:19:43;;;;;;;3.70;1.60;;;9.30;83.50;;;;;;5030163;28;20183;-77
2022/04/11 08:22:09;;;;;;;2.10;1.67;;;9.30;83.20;;;;;;5006905;28;20173;-77
2022/04/11 08:24:35;;;;;;;3.50;1.20;;;9.40;82.90;;;;;;4988740;28;20233;-77
2022/04/11 08:27:00;;;;;;;2.87;1.27;;;9.50;83.00;;;;;;4989545;28;20210;-77
2022/04/11 08:29:26;;;;;;;5.47;1.67;;;9.60;81.80;;;;;;4989295;28;20193;-77
2022/04/11 08:31:52;;;;;;;5.67;1.40;;;9.60;82.40;;;;;;4989350;28;20183;-77
2022/04/11 08:34:18;;;;;;;2.07;1.80;;;9.80;82.60;;;;;;4990615;28;20224;-77
2022/04/11 08:36:44;;;;;;;1.73;1.50;;;10.00;83.40;;;;;;4989223;28;20412;-76
2022/04/11 08:39:10;;;;;;;4.10;1.80;;;10.10;80.90;;;;;;4989392;28;20277;-76
2022/04/11 08:41:37;;;;;;;2.07;1.77;;;10.10;81.20;;;;;;4991801;28;20409;-81
2022/04/11 08:44:04;;;;;;;2.40;1.70;;;10.10;81.80;;;;;;4996979;28;20436;-83
2022/04/11 08:46:31;;;;;;;2.93;1.63;;;10.10;81.00;;;;;;5010352;28;20902;-80
2022/04/11 08:49:02;;;;;;;2.43;1.60;;;10.20;82.10;;;;;;5010280;28;20415;-80
2022/04/11 08:51:31;;;;;;;2.20;1.60;;;10.20;81.00;;;;;;5011305;28;20420;-80
2022/04/11 08:54:00;;;;;;;2.93;2.23;;;10.40;81.20;;;;;;5009997;28;20535;-82
2022/04/11 08:56:27;;;;;;;3.20;1.60;;;10.70;81.30;;;;;;5011489;28;20807;-81
2022/04/11 08:58:53;;;;;;;2.30;1.77;;;10.80;79.80;;;;;;5011773;28;20964;-81
2022/04/11 09:01:18;;;;;;;3.00;1.93;;;10.70;79.60;;;;;;5011522;28;20562;-81
2022/04/11 09:03:44;;;;;;;3.90;1.80;;;10.80;80.50;;;;;;5011880;28;20453;-80
2022/04/11 09:06:13;;;;;;;3.60;1.67;;;10.80;79.80;;;;;;5013354;28;20177;-83
2022/04/11 09:08:54;;;;;;;2.97;1.60;;;10.90;80.30;;;;;;5000704;28;20292;-81
2022/04/11 09:11:37;;;;;;;6.20;2.00;;;10.80;79.00;;;;;;4992316;28;20413;-81
2022/04/11 09:14:04;;;;;;;3.40;1.80;;;10.70;79.30;;;;;;4991634;28;20445;-81
2022/04/11 09:16:48;;;;;;;3.07;1.70;;;10.90;79.20;;;;;;4991743;28;20413;-81
2022/04/11 09:19:31;;;;;;;4.30;1.77;;;11.10;78.80;;;;;;4993793;28;20428;-79
2022/04/11 09:21:57;;;;;;;2.17;1.67;;;11.20;78.30;;;;;;4981608;28;20475;-80
2022/04/11 09:24:26;;;;;;;2.07;1.63;;;11.20;77.50;;;;;;4974149;28;20468;-80
2022/04/11 09:26:54;;;;;;;3.60;1.93;;;11.20;77.60;;;;;;4994177;28;20468;-81
2022/04/11 09:29:31;;;;;;;2.90;1.70;;;11.30;76.10;;;;;;4994554;28;20440;-82
2022/04/11 09:32:04;;;;;;;3.00;2.33;;;11.50;76.80;;;;;;4995099;28;20523;-80
2022/04/11 09:34:30;;;;;;;2.67;1.87;;;11.60;76.50;;;;;;4994584;28;20887;-82
2022/04/11 09:37:01;;;;;;;2.53;1.50;;;11.70;76.20;;;;;;4996834;28;20409;-81
2022/04/11 09:39:32;;;;;;;3.33;2.00;;;11.50;75.50;;;;;;4995771;28;20212;-80
2022/04/11 09:41:58;;;;;;;1.87;1.60;;;11.40;75.90;;;;;;4994113;28;20507;-82
2022/04/11 09:44:36;;;;;;;2.30;1.80;;;11.60;76.20;;;;;;4991962;28;20462;-83
2022/04/11 09:47:06;;;;;;;7.23;2.67;;;11.90;75.90;;;;;;4979248;28;20225;-82
2022/04/11 09:49:33;;;;;;;5.20;2.13;;;12.00;75.60;;;;;;4977707;28;20756;-82
2022/04/11 09:52:07;;;;;;;3.57;2.03;;;12.10;75.20;;;;;;4994708;28;20457;-83
2022/04/11 09:54:37;;;;;;;6.60;1.73;;;12.20;74.40;;;;;;4978241;28;20807;-82
2022/04/11 09:57:04;;;;;;;2.30;1.80;;;11.90;72.70;;;;;;4978598;28;20441;-82
2022/04/11 09:59:30;;;;;;;4.80;1.90;;;11.50;73.40;;;;;;4977517;28;20613;-80
2022/04/11 10:01:57;;;;;;;3.03;1.93;;;11.20;73.00;;;;;;4980038;28;20508;-81
2022/04/11 10:04:23;;;;;;;3.80;2.00;;;11.10;72.20;;;;;;4995395;28;20240;-80
2022/04/11 10:06:49;;;;;;;4.50;1.77;;;11.30;73.30;;;;;;5004785;28;20434;-81
2022/04/11 10:09:16;;;;;;;3.70;1.73;;;11.50;73.40;;;;;;4976210;28;20513;-80
2022/04/11 10:11:43;;;;;;;5.93;1.70;;;11.60;72.10;;;;;;4987273;28;20455;-80
2022/04/11 10:14:13;;;;;;;6.33;1.37;;;11.80;71.90;;;;;;4993424;28;20450;-80
2022/04/11 10:16:43;;;;;;;2.80;1.70;;;12.00;72.60;;;;;;4977871;28;20422;-80
2022/04/11 10:19:13;;;;;;;3.80;1.63;;;12.10;72.10;;;;;;4983488;28;20421;-80
2022/04/11 10:21:41;;;;;;;3.73;2.17;;;12.10;72.30;;;;;;4996436;28;20412;-81
2022/04/11 10:24:28;;;;;;;3.03;1.67;;;12.30;73.80;;;;;;4996181;28;21021;-81
2022/04/11 10:26:56;;;;;;;4.80;1.60;;;12.60;73.90;;;;;;4998644;28;20449;-80
2022/04/11 10:29:32;;;;;;;3.30;1.50;;;12.80;72.50;;;;;;4998142;28;20949;-81
2022/04/11 10:32:29;;;;;;;4.10;1.70;;;13.00;72.20;;;;;;4996213;28;20425;-80
2022/04/11 10:35:03;;;;;;;3.40;1.90;;;12.90;71.70;;;;;;4988055;28;20983;-81
2022/04/11 10:37:49;;;;;;;5.03;1.90;;;13.00;72.20;;;;;;4996489;28;20452;-81
2022/04/11 10:40:17;;;;;;;3.27;1.80;;;12.90;71.50;;;;;;4996328;28;20424;-81
2022/04/11 10:43:05;;;;;;;5.23;2.30;;;13.00;72.50;;;;;;4994919;28;20440;-81
2022/04/11 10:45:56;;;;;;;5.33;1.97;;;13.00;71.80;;;;;;4995715;28;21000;-81
2022/04/11 10:49:11;;;;;;;3.97;1.83;;;12.60;71.60;;;;;;4997655;28;20503;-81
2022/04/11 10:51:38;;;;;;;2.70;1.77;;;12.80;73.90;;;;;;4983506;28;20406;-82
2022/04/11 10:54:17;;;;;;;2.60;1.90;;;12.70;71.30;;;;;;4995728;28;20437;-81
2022/04/11 10:56:53;;;;;;;4.37;1.90;;;12.70;71.80;;;;;;4996790;28;20409;-81
2022/04/11 11:00:07;;;;;;;3.67;1.90;;;12.70;72.30;;;;;;4995897;28;20475;-81
2022/04/11 11:03:00;;;;;;;4.07;2.30;;;12.60;70.40;;;;;;4986715;28;20425;-82
2022/04/11 11:05:32;;;;;;;7.13;2.20;;;12.40;70.30;;;;;;4989564;28;20446;-81
2022/04/11 11:08:09;;;;;;;2.03;1.67;;;12.70;71.60;;;;;;4992771;28;20547;-82
2022/04/11 11:10:44;;;;;;;3.30;1.73;;;13.00;69.70;;;;;;4993136;28;20445;-81
2022/04/11 11:13:34;;;;;;;3.10;1.60;;;13.10;69.60;;;;;;5002407;28;20423;-82
2022/04/11 11:16:01;;;;;;;2.63;1.63;;;12.90;69.90;;;;;;4997032;28;20490;-81
2022/04/11 11:18:48;;;;;;;4.23;2.10;;;12.60;70.80;;;;;;5004570;28;20424;-81
2022/04/11 11:21:15;;;;;;;3.07;2.00;;;12.80;71.30;;;;;;4992125;28;20448;-81
2022/04/11 11:23:42;;;;;;;6.93;1.90;;;12.70;71.00;;;;;;4987235;28;20556;-81
2022/04/11 11:26:11;;;;;;;6.07;1.97;;;12.70;71.00;;;;;;4974499;28;21014;-81
2022/04/11 11:28:40;;;;;;;3.33;1.60;;;12.80;70.20;;;;;;4991874;28;20459;-81
2022/04/11 11:31:05;;;;;;;7.53;2.00;;;13.10;71.70;;;;;;4988920;28;20425;-81
2022/04/11 11:33:32;;;;;;;2.63;1.97;;;13.50;72.40;;;;;;4975725;28;20434;-81
2022/04/11 11:35:58;;;;;;;3.43;2.00;;;13.70;69.50;;;;;;4976270;28;20175;-81
2022/04/11 11:38:31;;;;;;;1.40;1.20;;;13.60;68.10;;;;;;4985596;28;20897;-81
2022/04/11 11:41:03;;;;;;;2.07;1.93;;;13.50;68.50;;;;;;4998154;28;20427;-82
2022/04/11 11:43:30;;;;;;;4.27;1.87;;;13.60;68.30;;;;;;5007090;28;20502;-81
2022/04/11 11:46:00;;;;;;;3.03;2.00;;;13.70;69.00;;;;;;4994196;28;20413;-81
2022/04/11 11:48:28;;;;;;;3.80;1.70;;;13.70;67.50;;;;;;4997496;28;21155;-82
2022/04/11 11:50:58;;;;;;;3.47;1.93;;;13.90;68.50;;;;;;4996458;28;20471;-81
2022/04/11 11:53:26;;;;;;;5.30;1.97;;;14.10;68.10;;;;;;5002742;28;20927;-81
2022/04/11 11:55:55;;;;;;;2.57;1.70;;;14.10;68.80;;;;;;4996461;28;20420;-82
2022/04/11 11:58:21;;;;;;;2.03;1.80;;;14.00;67.70;;;;;;5016298;28;20416;-82
2022/04/11 12:00:47;;;;;;;7.73;2.13;;;13.90;67.80;;;;;;5016584;28;20419;-82
2022/04/11 12:05:59;;;;;;;3.23;1.97;;;14.50;70.10;;;;;;4991224;28;20460;-82
2022/04/11 12:08:26;;;;;;;2.60;1.60;;;14.80;68.40;;;;;;4994667;28;20522;-82
2022/04/11 12:10:53;;;;;;;2.10;1.70;;;15.10;69.40;;;;;;4994085;28;20335;-82
2022/04/11 12:13:26;;;;;;;4.87;1.93;;;15.20;67.10;;;;;;4995651;28;20451;-82
2022/04/11 12:15:52;;;;;;;3.53;1.90;;;15.20;66.00;;;;;;5012610;28;20431;-82
2022/04/11 12:18:18;;;;;;;11.50;1.90;;;15.10;64.80;;;;;;5013801;28;20928;-82
2022/04/11 12:20:44;;;;;;;3.23;1.80;;;15.30;67.50;;;;;;5012566;28;20424;-83
2022/04/11 12:23:15;;;;;;;3.40;1.90;;;15.40;66.80;;;;;;4995835;28;20229;-82
2022/04/11 12:25:48;;;;;;;1.73;1.60;;;15.60;66.00;;;;;;4988116;28;20433;-82
2022/04/11 12:28:25;;;;;;;2.27;1.70;;;15.50;63.50;;;;;;4994602;28;20467;-82
2022/04/11 12:31:03;;;;;;;2.57;1.80;;;15.60;65.30;;;;;;4994916;28;20755;-81
2022/04/11 12:33:40;;;;;;;4.20;1.90;;;15.70;64.90;;;;;;4994396;28;20412;-81
2022/04/11 12:36:13;;;;;;;2.67;1.87;;;15.60;64.70;;;;;;4985093;28;20912;-81
2022/04/11 12:38:58;;;;;;;3.23;2.00;;;15.80;64.60;;;;;;4994033;28;20724;-82
2022/04/11 12:41:48;;;;;;;2.53;2.00;;;15.90;63.90;;;;;;4994618;28;20998;-81
2022/04/11 12:44:21;;;;;;;1.77;1.67;;;16.00;63.20;;;;;;4994460;28;20448;-81
2022/04/11 12:46:55;;;;;;;3.30;1.77;;;16.40;66.30;;;;;;4994130;28;20762;-81
2022/04/11 12:49:21;;;;;;;6.93;4.00;;;16.80;64.70;;;;;;4995964;28;20421;-81
2022/04/11 12:52:01;;;;;;;7.20;2.07;;;17.10;64.50;;;;;;5012094;28;20430;-81
2022/04/11 12:54:40;;;;;;;7.23;2.07;;;17.40;64.70;;;;;;4998950;28;20584;-81
2022/04/11 12:57:10;;;;;;;3.73;1.60;;;17.50;63.80;;;;;;5001186;28;20503;-81
2022/04/11 12:59:41;;;;;;;4.40;1.43;;;17.50;63.00;;;;;;4995428;28;20420;-81
2022/04/11 13:02:12;;;;;;;3.63;2.40;;;17.40;61.60;;;;;;4997386;28;20460;-81
2022/04/11 13:04:51;;;;;;;5.47;2.20;;;17.60;64.90;;;;;;5013256;28;20525;-82
2022/04/11 13:07:21;;;;;;;4.80;1.70;;;17.50;61.40;;;;;;5004501;28;20468;-81
2022/04/11 13:09:48;;;;;;;3.73;2.80;;;16.90;61.00;;;;;;4997408;28;20508;-82
2022/04/11 13:12:15;;;;;;;4.80;2.27;;;16.90;63.00;;;;;;5002327;28;20425;-82
2022/04/11 13:14:43;;;;;;;5.77;2.20;;;17.10;63.30;;;;;;4996880;28;20456;-82